Hlavní strana
METAR-TAF:

METAR-TAF

Letiště :

Bizerte, Tunisko

zeměpisná šířka: 37-15N, zeměpisná délka: 009-48E, výška: 5 m

Aktuální stav počasí

Zpráva byla vytvořena před 42 minutami, v 20:00 UTC
Západoseverozápadní vítr 9 kt
Teplota 12°C
Vlhkost vzduchu 71%
Tlak 1022 hPa
Viditelnost 10 km a více
Polojasno ve výšce 2000 ft

METAR: DTTB 132000Z 29009KT 9999 SCT020 12/07 Q1022

Čas: 21:42 (20:42 UTC)

Předpověď počasí

Zpráva byla vytvořena před 2 hodinami a 42 minutami, v 18:00 UTC
Předpověď platná od 13 v 19 UTC do 14 v 04 UTC
Západoseverozápadní vítr 13 kt
Viditelnost 10 km a více
Polojasno ve výšce 2000 ft
Změna
od 13 v 20 UTC do 13 v 22 UTC
Západojihozápadní vítr 8 kt

TAF: DTTB 131800Z 1319/1404 29013KT 9999 SCT020 BECMG 1320/1322 25008KT

Stav a předpovědi počasí z více než 4 000 letišť (zprávy METAR a TAF).

Červené a žluté tečky na mapě představují dostupné meteorologické stanice.

Když kurzor umístíte na tečku, zobrazí se název stanice.

Pak kliknutím zobrazíte stav a předpověď počasí.

Chcete-li změnit mapu, kliknutím na zelené tlačítko se znaménkem +mapu přiblížíte, kliknutím na zelené tlačítko se znaménkem – mapu oddálíte a kliknutím na zelené šipky přejdete na sousední mapy.


METAR-TAF: